Time;durP1;ratioP1;P1;durP2;ratioP2;P2;SDS_P1;SDS_P2;PMS_P1;PMS_P2;Temp;Humidity;BMP_temperature;BMP_pressure;BME280_temperature;BME280_humidity;BME280_pressure;Samples;Min_cycle;Max_cycle;Signal;HPM_P1;HPM_P2
2022/04/17 00:00:26;;;;;;;;;;;6.60;98.20;;;;;;5068655;28;20383;-84
2022/04/17 00:02:52;;;;;;;;;;;6.60;97.80;;;;;;5066016;28;19979;-83
2022/04/17 00:05:19;;;;;;;;;;;6.60;97.90;;;;;;5071558;28;19928;-83
2022/04/17 00:07:45;;;;;;;;;;;6.60;98.00;;;;;;5071330;28;19924;-83
2022/04/17 00:10:12;;;;;;;;;;;6.50;97.60;;;;;;5071891;28;20283;-83
2022/04/17 00:12:39;;;;;;;;;;;6.50;97.80;;;;;;5068423;28;20383;-83
2022/04/17 00:15:05;;;;;;;;;;;6.50;97.60;;;;;;5096904;28;20619;-84
2022/04/17 00:17:32;;;;;;;;;;;6.50;97.60;;;;;;5072673;28;19924;-84
2022/04/17 00:19:58;;;;;;;;;;;6.50;97.70;;;;;;5061491;28;19932;-84
2022/04/17 00:22:25;;;;;;;;;;;6.50;98.10;;;;;;5066156;28;20015;-85
2022/04/17 00:24:52;;;;;;;;;;;6.40;98.10;;;;;;5058594;28;19929;-84
2022/04/17 00:27:18;;;;;;;;;;;6.40;98.20;;;;;;5072046;28;19974;-82
2022/04/17 00:29:45;;;;;;;;;;;6.40;98.40;;;;;;5071142;28;19925;-83
2022/04/17 00:32:11;;;;;;;;;;;6.40;98.70;;;;;;5065352;28;19925;-84
2022/04/17 00:34:38;;;;;;;;;;;6.30;98.80;;;;;;5070501;28;19931;-84
2022/04/17 00:37:04;;;;;;;;;;;6.30;98.90;;;;;;5068820;28;20010;-83
2022/04/17 00:39:31;;;;;;;;;;;6.20;98.80;;;;;;5067674;28;19925;-86
2022/04/17 00:41:59;;;;;;;;;;;6.20;99.10;;;;;;5066297;28;19924;-84
2022/04/17 00:44:26;;;;;;;;;;;6.10;98.90;;;;;;5060602;28;19925;-84
2022/04/17 00:46:53;;;;;;;;;;;6.10;98.60;;;;;;5102218;28;19972;-82
2022/04/17 00:49:19;;;;;;;;;;;6.10;98.60;;;;;;5071087;28;19925;-85
2022/04/17 00:51:46;;;;;;;;;;;6.10;98.80;;;;;;5066166;28;19925;-84
2022/04/17 00:54:13;;;;;;;;;;;6.10;99.00;;;;;;5065683;28;19925;-84
2022/04/17 00:56:40;;;;;;;;;;;6.10;99.10;;;;;;5070600;28;20283;-84
2022/04/17 00:59:06;;;;;;;;;;;6.10;99.90;;;;;;5070827;28;19928;-85
2022/04/17 01:01:33;;;;;;;;;;;6.00;99.90;;;;;;5069777;28;19924;-86
2022/04/17 01:03:59;;;;;;;;;;;5.90;99.90;;;;;;5072189;28;19970;-84
2022/04/17 01:06:26;;;;;;;;;;;5.90;99.90;;;;;;5068795;28;19924;-83
2022/04/17 01:08:52;;;;;;;;;;;5.90;99.90;;;;;;5069895;28;19921;-82
2022/04/17 01:11:19;;;;;;;;;;;5.80;99.90;;;;;;5063569;28;20288;-82
2022/04/17 01:13:46;;;;;;;;;;;5.80;99.90;;;;;;5059427;28;20383;-83
2022/04/17 01:16:14;;;;;;;;;;;5.70;99.90;;;;;;5071442;28;19990;-83
2022/04/17 01:18:41;;;;;;;;;;;5.70;99.90;;;;;;5071260;28;20307;-85
2022/04/17 01:21:07;;;;;;;;;;;5.60;99.90;;;;;;5071332;28;19924;-83
2022/04/17 01:29:02;;;;;;;;;;;5.50;99.90;;;;;;5059314;28;19974;-83
2022/04/17 01:31:29;;;;;;;;;;;5.50;99.90;;;;;;5072572;28;20016;-83
2022/04/17 01:33:55;;;;;;;;;;;5.50;99.90;;;;;;5071331;28;19936;-83
2022/04/17 01:36:22;;;;;;;;;;;5.40;99.90;;;;;;5066869;28;19928;-83
2022/04/17 01:38:48;;;;;;;;;;;5.40;99.90;;;;;;5057810;28;19931;-83
2022/04/17 01:41:18;;;;;;;;;;;5.40;99.90;;;;;;5071611;28;19928;-83
2022/04/17 01:43:44;;;;;;;;;;;5.40;99.90;;;;;;5070196;28;19928;-83
2022/04/17 01:46:11;;;;;;;;;;;5.40;99.90;;;;;;5065142;28;20380;-82
2022/04/17 01:48:38;;;;;;;;;;;5.40;99.90;;;;;;5066850;28;20331;-86
2022/04/17 01:51:04;;;;;;;;;;;5.30;99.90;;;;;;5052277;28;19928;-84
2022/04/17 01:53:31;;;;;;;;;;;5.30;99.90;;;;;;5055407;28;19971;-84
2022/04/17 01:55:57;;;;;;;;;;;5.30;99.90;;;;;;5064506;28;19939;-84
2022/04/17 01:58:24;;;;;;;;;;;5.30;99.90;;;;;;5058802;28;19928;-85
2022/04/17 02:00:50;;;;;;;;;;;5.20;99.90;;;;;;5070842;28;19925;-82
2022/04/17 02:03:17;;;;;;;;;;;5.20;99.90;;;;;;5070863;28;20027;-84
2022/04/17 02:05:43;;;;;;;;;;;5.20;99.90;;;;;;5070238;28;19931;-84
2022/04/17 02:08:11;;;;;;;;;;;5.10;99.90;;;;;;5066596;28;19924;-84
2022/04/17 02:10:38;;;;;;;;;;;5.10;99.90;;;;;;5070300;28;19978;-86
2022/04/17 02:13:04;;;;;;;;;;;5.10;99.90;;;;;;5058926;28;19936;-83
2022/04/17 02:15:31;;;;;;;;;;;5.00;99.90;;;;;;5070430;28;19925;-82
2022/04/17 02:17:57;;;;;;;;;;;5.10;99.90;;;;;;5065121;28;20000;-83
2022/04/17 02:20:24;;;;;;;;;;;5.00;99.90;;;;;;5071607;28;20368;-82
2022/04/17 02:22:50;;;;;;;;;;;5.00;99.90;;;;;;5062885;28;20377;-83
2022/04/17 02:25:17;;;;;;;;;;;4.90;99.90;;;;;;5067572;28;19931;-83
2022/04/17 02:27:44;;;;;;;;;;;4.80;99.90;;;;;;5062486;28;19924;-84
2022/04/17 02:30:10;;;;;;;;;;;4.70;99.90;;;;;;5070265;28;20015;-83
2022/04/17 02:32:37;;;;;;;;;;;4.70;99.90;;;;;;5067718;28;19924;-83
2022/04/17 02:35:03;;;;;;;;;;;4.60;99.90;;;;;;5070032;28;19925;-82
2022/04/17 02:37:30;;;;;;;;;;;4.60;99.90;;;;;;5057045;28;19925;-83
2022/04/17 02:39:57;;;;;;;;;;;4.60;99.90;;;;;;5066609;28;19940;-82
2022/04/17 02:42:23;;;;;;;;;;;4.50;99.90;;;;;;5070264;28;20011;-85
2022/04/17 02:44:50;;;;;;;;;;;4.50;99.90;;;;;;5070925;28;19925;-82
2022/04/17 02:50:01;;;;;;;;;;;4.30;99.90;;;;;;5069934;28;19924;-84
2022/04/17 02:52:27;;;;;;;;;;;4.20;99.90;;;;;;5057979;28;19951;-83
2022/04/17 02:54:54;;;;;;;;;;;4.00;99.90;;;;;;5060380;28;19925;-83
2022/04/17 02:57:21;;;;;;;;;;;4.00;99.90;;;;;;5064292;28;19924;-83
2022/04/17 02:59:47;;;;;;;;;;;4.00;99.90;;;;;;5059805;28;20368;-83
2022/04/17 03:07:42;;;;;;;;;;;3.80;99.90;;;;;;5070053;28;19966;-86
2022/04/17 03:10:09;;;;;;;;;;;3.70;99.90;;;;;;5069984;28;19967;-83
2022/04/17 03:12:35;;;;;;;;;;;3.70;99.90;;;;;;5070067;28;19929;-83
2022/04/17 03:15:02;;;;;;;;;;;3.70;99.90;;;;;;5057660;28;19931;-83
2022/04/17 03:17:28;;;;;;;;;;;3.70;99.90;;;;;;5071961;28;19924;-84
2022/04/17 03:19:55;;;;;;;;;;;3.70;99.90;;;;;;5073331;28;19929;-84
2022/04/17 03:22:21;;;;;;;;;;;3.70;99.90;;;;;;5066738;28;19948;-80
2022/04/17 03:24:48;;;;;;;;;;;3.70;99.90;;;;;;5073043;28;19924;-86
2022/04/17 03:27:14;;;;;;;;;;;3.70;99.90;;;;;;5073302;28;19928;-87
2022/04/17 03:29:41;;;;;;;;;;;3.70;99.90;;;;;;5107839;28;19924;-86
2022/04/17 03:32:07;;;;;;;;;;;3.70;99.90;;;;;;5065876;28;19978;-86
2022/04/17 03:34:34;;;;;;;;;;;3.60;99.90;;;;;;5073113;28;20360;-86
2022/04/17 03:37:01;;;;;;;;;;;3.60;99.90;;;;;;5073047;28;19932;-85
2022/04/17 03:39:27;;;;;;;;;;;3.70;99.90;;;;;;5073458;28;19924;-87
2022/04/17 03:41:54;;;;;;;;;;;3.60;99.90;;;;;;5060358;28;19931;-85
2022/04/17 03:44:20;;;;;;;;;;;3.60;99.90;;;;;;5066742;28;19971;-85
2022/04/17 03:46:47;;;;;;;;;;;3.60;99.90;;;;;;5062748;28;20370;-87
2022/04/17 03:49:14;;;;;;;;;;;3.60;99.90;;;;;;5062751;28;19925;-86
2022/04/17 03:51:40;;;;;;;;;;;3.60;99.90;;;;;;5071256;28;19928;-86
2022/04/17 03:54:07;;;;;;;;;;;3.60;99.90;;;;;;5072279;28;19924;-85
2022/04/17 03:56:34;;;;;;;;;;;3.50;99.90;;;;;;5071579;28;19928;-86
2022/04/17 03:59:01;;;;;;;;;;;3.50;99.90;;;;;;5090582;28;20024;-86
2022/04/17 04:01:28;;;;;;;;;;;3.50;99.90;;;;;;5060570;28;20448;-87
2022/04/17 04:03:55;;;;;;;;;;;3.50;99.90;;;;;;5068051;28;19994;-86
2022/04/17 04:06:22;;;;;;;;;;;3.50;99.90;;;;;;5070259;28;20383;-86
2022/04/17 04:08:49;;;;;;;;;;;3.50;99.90;;;;;;5065853;28;20378;-87
2022/04/17 04:11:15;;;;;;;;;;;3.50;99.90;;;;;;5071578;28;19932;-86
2022/04/17 04:13:42;;;;;;;;;;;3.50;99.90;;;;;;5061098;28;19931;-86
2022/04/17 04:16:08;;;;;;;;;;;3.40;99.90;;;;;;5072113;28;19989;-86
2022/04/17 04:18:35;;;;;;;;;;;3.40;99.90;;;;;;5064557;28;19939;-85
2022/04/17 04:21:02;;;;;;;;;;;3.30;99.90;;;;;;5070134;28;19925;-86
2022/04/17 04:23:28;;;;;;;;;;;3.20;99.90;;;;;;5073444;28;19924;-87
2022/04/17 04:25:55;;;;;;;;;;;3.20;99.90;;;;;;5071981;28;20368;-86
2022/04/17 04:28:38;;;;;;;;;;;3.20;99.90;;;;;;5060962;28;20382;-86
2022/04/17 04:31:05;;;;;;;;;;;3.20;99.90;;;;;;5071637;28;19989;-86
2022/04/17 04:33:32;;;;;;;;;;;3.20;99.90;;;;;;5063499;28;19950;-86
2022/04/17 04:35:59;;;;;;;;;;;3.20;99.90;;;;;;5072042;28;19928;-86
2022/04/17 04:38:26;;;;;;;;;;;3.20;99.90;;;;;;5073403;28;19968;-85
2022/04/17 04:40:52;;;;;;;;;;;3.30;99.90;;;;;;5065153;28;19939;-86
2022/04/17 04:43:21;;;;;;;;;;;3.30;99.90;;;;;;5071508;28;21524;-85
2022/04/17 04:51:16;;;;;;;;;;;4.10;99.90;;;;;;5071432;28;19929;-85
2022/04/17 04:53:42;;;;;;;;;;;4.50;99.90;;;;;;5066344;28;19932;-85
2022/04/17 04:56:09;;;;;;;;;;;4.70;99.90;;;;;;5072072;28;19931;-85
2022/04/17 04:58:36;;;;;;;;;;;4.80;99.90;;;;;;5072146;28;20441;-85
2022/04/17 05:01:02;;;;;;;;;;;4.70;99.90;;;;;;5073163;28;20362;-85
2022/04/17 05:03:29;;;;;;;;;;;4.60;99.90;;;;;;5067129;28;19935;-85
2022/04/17 05:05:55;;;;;;;;;;;4.70;99.90;;;;;;5071529;28;19925;-86
2022/04/17 05:08:22;;;;;;;;;;;4.80;99.90;;;;;;5072733;28;19973;-85
2022/04/17 05:10:48;;;;;;;;;;;4.90;99.90;;;;;;5072097;28;19925;-84
2022/04/17 05:13:15;;;;;;;;;;;5.10;99.90;;;;;;5070697;28;19924;-85
2022/04/17 05:15:41;;;;;;;;;;;5.10;99.90;;;;;;5061073;28;19931;-83
2022/04/17 05:18:08;;;;;;;;;;;5.20;99.90;;;;;;5059762;28;19947;-85
2022/04/17 05:20:34;;;;;;;;;;;5.20;99.90;;;;;;5070769;28;20843;-85
2022/04/17 05:23:15;;;;;;;;;;;5.10;99.90;;;;;;5068222;28;19936;-86
2022/04/17 05:25:42;;;;;;;;;;;5.10;99.90;;;;;;5071570;28;19925;-86
2022/04/17 05:28:08;;;;;;;;;;;5.30;99.90;;;;;;5071381;28;19924;-86
2022/04/17 05:30:35;;;;;;;;;;;5.40;99.90;;;;;;5056899;28;19929;-86
2022/04/17 05:33:01;;;;;;;;;;;5.50;99.90;;;;;;5067768;28;19924;-85
2022/04/17 05:35:28;;;;;;;;;;;5.60;99.90;;;;;;5072307;28;19925;-84
2022/04/17 05:37:54;;;;;;;;;;;5.70;99.90;;;;;;5072284;28;19939;-86
2022/04/17 05:40:21;;;;;;;;;;;5.90;99.90;;;;;;5069654;28;19924;-83
2022/04/17 05:42:48;;;;;;;;;;;5.90;99.90;;;;;;5072407;28;20429;-86
2022/04/17 05:45:14;;;;;;;;;;;6.10;99.90;;;;;;5072842;28;19928;-86
2022/04/17 05:47:41;;;;;;;;;;;6.20;99.90;;;;;;5080531;28;19924;-86
2022/04/17 05:50:07;;;;;;;;;;;6.40;99.90;;;;;;5072860;28;19928;-86
2022/04/17 05:52:34;;;;;;;;;;;6.50;99.90;;;;;;5073994;28;19971;-86
2022/04/17 05:55:00;;;;;;;;;;;6.80;99.90;;;;;;5070997;28;19924;-87
2022/04/17 05:57:27;;;;;;;;;;;6.70;99.90;;;;;;5068515;28;19936;-86
2022/04/17 05:59:54;;;;;;;;;;;6.80;99.90;;;;;;5070990;28;19931;-86
2022/04/17 06:02:20;;;;;;;;;;;6.90;99.90;;;;;;5070024;28;19991;-86
2022/04/17 06:04:47;;;;;;;;;;;6.90;99.90;;;;;;5063345;28;20277;-86
2022/04/17 06:07:14;;;;;;;;;;;7.20;99.90;;;;;;5069040;28;19975;-86
2022/04/17 06:09:40;;;;;;;;;;;7.30;99.90;;;;;;5069962;28;20000;-86
2022/04/17 06:12:07;;;;;;;;;;;7.40;99.90;;;;;;5074113;28;19943;-86
2022/04/17 06:14:33;;;;;;;;;;;7.50;99.90;;;;;;5067265;28;19936;-86
2022/04/17 06:17:00;;;;;;;;;;;7.80;99.90;;;;;;5070495;28;19928;-86
2022/04/17 06:19:27;;;;;;;;;;;7.60;99.90;;;;;;5063448;28;20435;-87
2022/04/17 06:21:53;;;;;;;;;;;7.80;99.90;;;;;;5066815;28;19962;-86
2022/04/17 06:24:20;;;;;;;;;;;7.90;99.90;;;;;;5067283;28;20288;-86
2022/04/17 06:26:48;;;;;;;;;;;8.20;99.90;;;;;;5065718;28;19928;-86
2022/04/17 06:29:14;;;;;;;;;;;8.30;99.90;;;;;;5078031;28;19970;-87
2022/04/17 06:31:45;;;;;;;;;;;8.50;99.90;;;;;;5067438;28;19929;-85
2022/04/17 06:34:12;;;;;;;;;;;8.60;99.90;;;;;;5099986;28;19925;-87
2022/04/17 06:36:38;;;;;;;;;;;8.50;99.90;;;;;;5055211;28;19935;-86
2022/04/17 06:39:05;;;;;;;;;;;8.50;99.90;;;;;;5051836;28;19928;-87
2022/04/17 06:41:32;;;;;;;;;;;8.40;99.90;;;;;;5066487;28;19935;-86
2022/04/17 06:43:58;;;;;;;;;;;8.60;99.90;;;;;;5065608;28;19935;-87
2022/04/17 06:46:25;;;;;;;;;;;8.90;99.90;;;;;;5066810;28;19925;-87
2022/04/17 06:48:51;;;;;;;;;;;9.10;99.90;;;;;;5061552;28;19924;-86
2022/04/17 06:51:22;;;;;;;;;;;9.50;99.70;;;;;;5062807;28;20011;-87
2022/04/17 06:53:49;;;;;;;;;;;9.70;99.80;;;;;;5069817;28;19935;-86
2022/04/17 06:56:18;;;;;;;;;;;10.00;99.90;;;;;;5069270;28;19929;-86
2022/04/17 06:58:44;;;;;;;;;;;10.30;99.90;;;;;;5068940;28;19928;-87
2022/04/17 07:01:11;;;;;;;;;;;10.20;99.00;;;;;;5069523;28;19929;-86
2022/04/17 07:03:37;;;;;;;;;;;10.50;97.40;;;;;;5072652;28;19932;-86
2022/04/17 07:06:04;;;;;;;;;;;10.50;98.30;;;;;;5073194;28;19925;-87
2022/04/17 07:08:31;;;;;;;;;;;10.80;97.90;;;;;;5066156;28;19932;-86
2022/04/17 07:10:57;;;;;;;;;;;10.90;98.30;;;;;;5067142;28;19939;-87
2022/04/17 07:13:24;;;;;;;;;;;11.00;97.00;;;;;;5068679;28;19931;-87
2022/04/17 07:15:51;;;;;;;;;;;11.20;97.50;;;;;;5073116;28;19928;-88
2022/04/17 07:18:17;;;;;;;;;;;11.20;96.40;;;;;;5070916;28;19932;-88
2022/04/17 07:20:44;;;;;;;;;;;11.30;96.50;;;;;;5071883;28;19935;-88
2022/04/17 07:23:10;;;;;;;;;;;11.60;96.80;;;;;;5067054;28;19935;-86
2022/04/17 07:25:37;;;;;;;;;;;11.70;95.70;;;;;;5068034;28;19939;-87
2022/04/17 07:28:03;;;;;;;;;;;11.80;96.00;;;;;;5068496;28;20425;-88
2022/04/17 07:30:30;;;;;;;;;;;11.90;96.40;;;;;;5064087;28;19928;-87
2022/04/17 07:32:57;;;;;;;;;;;12.10;96.80;;;;;;5094130;28;19928;-87
2022/04/17 07:35:23;;;;;;;;;;;12.30;95.40;;;;;;5069763;28;20007;-88
2022/04/17 07:37:50;;;;;;;;;;;12.10;95.30;;;;;;5078925;28;19928;-87
2022/04/17 07:40:17;;;;;;;;;;;12.40;94.80;;;;;;5067757;28;19971;-87
2022/04/17 07:42:44;;;;;;;;;;;12.50;94.80;;;;;;5095906;28;19928;-87
2022/04/17 07:45:10;;;;;;;;;;;12.70;94.60;;;;;;5101792;28;19924;-87
2022/04/17 07:47:37;;;;;;;;;;;12.90;94.20;;;;;;5061669;28;20031;-87
2022/04/17 07:50:05;;;;;;;;;;;13.00;95.50;;;;;;5067057;28;19933;-87
2022/04/17 07:52:31;;;;;;;;;;;13.30;94.20;;;;;;5068944;28;19928;-87
2022/04/17 07:54:58;;;;;;;;;;;13.40;92.80;;;;;;5072345;28;19936;-88
2022/04/17 07:57:25;;;;;;;;;;;13.50;92.30;;;;;;5067001;28;19925;-87
2022/04/17 07:59:55;;;;;;;;;;;13.60;91.40;;;;;;5072632;28;19924;-88
2022/04/17 08:02:28;;;;;;;;;;;13.70;90.90;;;;;;5074606;28;19927;-88
2022/04/17 08:04:55;;;;;;;;;;;13.70;90.90;;;;;;5068885;28;20085;-87
2022/04/17 08:07:21;;;;;;;;;;;13.80;90.00;;;;;;5070921;28;19928;-87
2022/04/17 08:09:48;;;;;;;;;;;13.90;88.90;;;;;;5080109;28;19940;-87
2022/04/17 08:12:14;;;;;;;;;;;14.00;90.20;;;;;;5070409;28;19948;-85
2022/04/17 08:14:41;;;;;;;;;;;14.10;89.90;;;;;;5067418;28;19931;-89
2022/04/17 08:17:07;;;;;;;;;;;14.30;86.00;;;;;;5068033;28;19931;-87
2022/04/17 08:19:35;;;;;;;;;;;14.30;85.10;;;;;;5069341;28;19932;-89
2022/04/17 08:22:01;;;;;;;;;;;14.40;83.80;;;;;;5064827;28;19925;-89
2022/04/17 08:24:30;;;;;;;;;;;14.50;83.90;;;;;;5064900;28;20310;-89
2022/04/17 08:26:57;;;;;;;;;;;14.50;82.70;;;;;;5061593;28;19929;-88
2022/04/17 08:29:24;;;;;;;;;;;14.60;82.80;;;;;;5066597;28;20003;-89
2022/04/17 08:31:50;;;;;;;;;;;14.70;80.70;;;;;;5069323;28;19924;-89
2022/04/17 08:34:17;;;;;;;;;;;14.80;79.30;;;;;;5069181;28;19932;-89
2022/04/17 08:36:43;;;;;;;;;;;14.60;82.00;;;;;;5067766;28;19929;-88
2022/04/17 08:39:10;;;;;;;;;;;14.80;79.50;;;;;;5058735;28;19934;-87
2022/04/17 08:41:36;;;;;;;;;;;14.80;80.50;;;;;;5065587;28;19940;-89
2022/04/17 08:44:03;;;;;;;;;;;15.00;80.70;;;;;;5067782;28;19929;-89
2022/04/17 08:46:29;;;;;;;;;;;15.00;80.70;;;;;;5069429;28;19990;-89
2022/04/17 08:48:56;;;;;;;;;;;15.00;78.40;;;;;;5074103;28;21216;-89
2022/04/17 08:51:23;;;;;;;;;;;15.00;78.90;;;;;;5069059;28;19990;-89
2022/04/17 08:53:49;;;;;;;;;;;15.10;77.60;;;;;;5066656;28;19928;-88
2022/04/17 08:56:16;;;;;;;;;;;15.20;77.80;;;;;;5066052;28;20450;-89
2022/04/17 08:58:42;;;;;;;;;;;15.30;72.50;;;;;;5062781;28;19924;-87
2022/04/17 09:01:09;;;;;;;;;;;15.40;71.90;;;;;;5063761;28;19942;-86
2022/04/17 09:03:35;;;;;;;;;;;15.40;72.70;;;;;;5070690;28;19925;-86
2022/04/17 09:06:02;;;;;;;;;;;15.40;71.20;;;;;;5069615;28;20019;-85
2022/04/17 09:08:29;;;;;;;;;;;15.40;70.40;;;;;;5068645;28;19935;-87
2022/04/17 09:10:55;;;;;;;;;;;15.40;67.80;;;;;;5070935;28;19947;-87
2022/04/17 09:13:22;;;;;;;;;;;15.60;70.70;;;;;;5067944;28;19925;-87
2022/04/17 09:15:48;;;;;;;;;;;15.60;68.60;;;;;;5100660;28;19935;-88
2022/04/17 09:18:15;;;;;;;;;;;15.60;68.90;;;;;;5076141;28;19924;-88
2022/04/17 09:20:41;;;;;;;;;;;15.70;66.50;;;;;;5075512;28;19932;-89
2022/04/17 09:23:08;;;;;;;;;;;15.80;67.50;;;;;;5061452;28;20158;-88
2022/04/17 09:25:34;;;;;;;;;;;15.80;68.40;;;;;;5071220;28;19933;-87
2022/04/17 09:28:01;;;;;;;;;;;15.90;67.00;;;;;;5072418;28;19931;-87
2022/04/17 09:30:28;;;;;;;;;;;15.90;66.30;;;;;;5071719;28;19928;-87
2022/04/17 09:32:55;;;;;;;;;;;15.90;64.40;;;;;;5061112;28;19928;-88
2022/04/17 09:35:21;;;;;;;;;;;15.90;63.90;;;;;;5069647;28;19948;-87
2022/04/17 09:37:48;;;;;;;;;;;16.00;67.10;;;;;;5066600;28;19924;-85
2022/04/17 09:40:14;;;;;;;;;;;16.10;61.30;;;;;;5071279;28;19925;-89
2022/04/17 09:42:41;;;;;;;;;;;16.10;62.20;;;;;;5101555;28;19930;-88
2022/04/17 09:45:08;;;;;;;;;;;16.10;60.80;;;;;;5071372;28;19924;-88
2022/04/17 09:47:35;;;;;;;;;;;16.10;60.60;;;;;;5063596;28;19925;-88
2022/04/17 09:50:01;;;;;;;;;;;15.70;60.20;;;;;;5070519;28;19931;-88
2022/04/17 09:52:28;;;;;;;;;;;16.00;63.20;;;;;;5070762;28;19939;-88
2022/04/17 09:54:55;;;;;;;;;;;16.10;62.20;;;;;;5071025;28;19924;-87
2022/04/17 09:57:22;;;;;;;;;;;16.20;62.20;;;;;;5070754;28;19925;-86
2022/04/17 09:59:48;;;;;;;;;;;16.10;59.60;;;;;;5070822;28;19931;-88
2022/04/17 10:02:15;;;;;;;;;;;16.20;61.80;;;;;;5066717;28;20398;-90
2022/04/17 10:04:42;;;;;;;;;;;16.40;60.70;;;;;;5062461;28;20375;-88
2022/04/17 10:07:09;;;;;;;;;;;16.60;60.50;;;;;;5071072;28;20542;-88
2022/04/17 10:09:35;;;;;;;;;;;16.60;60.50;;;;;;5066971;28;19933;-86
2022/04/17 10:12:02;;;;;;;;;;;16.60;60.30;;;;;;5064776;28;19932;-87
2022/04/17 10:14:28;;;;;;;;;;;16.50;56.50;;;;;;5054102;28;19929;-84
2022/04/17 10:16:55;;;;;;;;;;;16.50;56.40;;;;;;5059392;28;19925;-88
2022/04/17 10:19:24;;;;;;;;;;;16.60;59.30;;;;;;5069921;28;19963;-88
2022/04/17 10:21:50;;;;;;;;;;;16.60;54.30;;;;;;5072157;28;20015;-89
2022/04/17 10:24:17;;;;;;;;;;;16.50;56.60;;;;;;5070973;28;19975;-90
2022/04/17 10:26:43;;;;;;;;;;;16.60;56.10;;;;;;5068538;28;19928;-88
2022/04/17 10:29:10;;;;;;;;;;;16.30;51.60;;;;;;5074242;28;19925;-89
2022/04/17 10:31:37;;;;;;;;;;;16.50;54.00;;;;;;5074198;28;19935;-88
2022/04/17 10:34:06;;;;;;;;;;;16.60;52.30;;;;;;5074347;28;19924;-87
2022/04/17 10:36:32;;;;;;;;;;;16.60;52.50;;;;;;5070657;28;19932;-88
2022/04/17 10:38:59;;;;;;;;;;;16.60;51.80;;;;;;5074709;28;20011;-87
2022/04/17 10:41:25;;;;;;;;;;;16.80;51.00;;;;;;5074098;28;19925;-88
2022/04/17 10:43:52;;;;;;;;;;;16.70;50.10;;;;;;5072272;28;20364;-88
2022/04/17 10:46:18;;;;;;;;;;;16.90;50.60;;;;;;5064929;28;19931;-88
2022/04/17 10:48:45;;;;;;;;;;;16.90;48.70;;;;;;5067840;28;20376;-89
2022/04/17 10:51:12;;;;;;;;;;;16.90;49.80;;;;;;5074744;28;19924;-88
2022/04/17 10:53:38;;;;;;;;;;;16.80;49.50;;;;;;5072283;28;19925;-87
2022/04/17 10:56:05;;;;;;;;;;;16.90;50.20;;;;;;5076966;28;19978;-86
2022/04/17 10:58:31;;;;;;;;;;;17.10;49.70;;;;;;5083130;28;19924;-87
2022/04/17 11:00:58;;;;;;;;;;;17.20;48.30;;;;;;5081078;28;19932;-88
2022/04/17 11:03:26;;;;;;;;;;;17.20;49.60;;;;;;5081272;28;20336;-86
2022/04/17 11:06:09;;;;;;;;;;;17.30;49.80;;;;;;5071192;28;19947;-87
2022/04/17 11:08:36;;;;;;;;;;;17.30;49.40;;;;;;5070436;28;19971;-87
2022/04/17 11:11:02;;;;;;;;;;;17.40;50.00;;;;;;5083017;28;20383;-86
2022/04/17 11:13:29;;;;;;;;;;;17.40;48.80;;;;;;5055327;28;20291;-86
2022/04/17 11:15:55;;;;;;;;;;;17.40;48.30;;;;;;5110011;27;19925;-87
2022/04/17 11:18:23;;;;;;;;;;;17.60;47.80;;;;;;5077676;28;19928;-86
2022/04/17 11:20:49;;;;;;;;;;;17.50;47.70;;;;;;5072302;28;20330;-87
2022/04/17 11:23:16;;;;;;;;;;;17.50;45.90;;;;;;5070876;28;19932;-87
2022/04/17 11:25:42;;;;;;;;;;;17.50;46.10;;;;;;5070524;28;19928;-89
2022/04/17 11:28:09;;;;;;;;;;;17.60;44.70;;;;;;5070500;28;19924;-89
2022/04/17 11:30:35;;;;;;;;;;;17.60;44.70;;;;;;5070682;28;19940;-88
2022/04/17 11:33:02;;;;;;;;;;;17.60;44.90;;;;;;5071589;28;19929;-89
2022/04/17 11:35:29;;;;;;;;;;;17.60;45.50;;;;;;5073289;28;20383;-89
2022/04/17 11:37:56;;;;;;;;;;;17.60;46.40;;;;;;5068398;28;19924;-89
2022/04/17 11:40:23;;;;;;;;;;;17.70;47.40;;;;;;5073670;28;20283;-89
2022/04/17 11:42:50;;;;;;;;;;;17.70;43.50;;;;;;5077155;28;20280;-89
2022/04/17 11:45:16;;;;;;;;;;;17.70;45.00;;;;;;5073356;28;20391;-88
2022/04/17 11:47:43;;;;;;;;;;;17.20;41.50;;;;;;5064481;28;19932;-90
2022/04/17 11:50:10;;;;;;;;;;;17.10;44.90;;;;;;5073158;28;19925;-89
2022/04/17 11:52:36;;;;;;;;;;;17.20;44.20;;;;;;5072064;28;20056;-86
2022/04/17 11:55:03;;;;;;;;;;;17.40;44.70;;;;;;5073820;28;19931;-87
2022/04/17 11:57:29;;;;;;;;;;;17.60;43.80;;;;;;5095880;28;20284;-86
2022/04/17 11:59:56;;;;;;;;;;;17.50;45.00;;;;;;5069970;28;19924;-87
2022/04/17 12:02:23;;;;;;;;;;;17.50;45.60;;;;;;5063534;28;19979;-87
2022/04/17 12:04:49;;;;;;;;;;;17.50;47.30;;;;;;5074992;28;19932;-86
2022/04/17 12:07:16;;;;;;;;;;;17.60;45.20;;;;;;5063800;28;20367;-87
2022/04/17 12:09:43;;;;;;;;;;;17.60;46.20;;;;;;5072507;28;20387;-86
2022/04/17 12:12:09;;;;;;;;;;;17.70;44.50;;;;;;5084643;28;19936;-87
2022/04/17 12:14:36;;;;;;;;;;;17.70;45.80;;;;;;5071807;28;19932;-86
2022/04/17 12:17:02;;;;;;;;;;;17.90;46.50;;;;;;5074136;28;19925;-87
2022/04/17 12:19:29;;;;;;;;;;;18.00;46.80;;;;;;5070532;28;19935;-86
2022/04/17 12:21:56;;;;;;;;;;;18.00;45.00;;;;;;5065827;28;20008;-87
2022/04/17 12:24:23;;;;;;;;;;;17.80;44.70;;;;;;5070112;28;19931;-87
2022/04/17 12:26:49;;;;;;;;;;;17.80;44.80;;;;;;5073369;28;19970;-87
2022/04/17 12:29:16;;;;;;;;;;;17.80;45.50;;;;;;5073596;28;19931;-87
2022/04/17 12:31:42;;;;;;;;;;;17.80;45.40;;;;;;5072513;28;19931;-87
2022/04/17 12:34:09;;;;;;;;;;;17.90;44.50;;;;;;5072216;28;19944;-85
2022/04/17 12:36:37;;;;;;;;;;;17.80;45.30;;;;;;5077955;28;19968;-86
2022/04/17 12:39:04;;;;;;;;;;;17.90;43.90;;;;;;5071120;28;19972;-86
2022/04/17 12:41:30;;;;;;;;;;;17.50;41.80;;;;;;5075531;28;19936;-87
2022/04/17 12:43:57;;;;;;;;;;;17.50;45.40;;;;;;5071816;28;20011;-87
2022/04/17 12:46:24;;;;;;;;;;;17.50;44.30;;;;;;5066529;28;19947;-87
2022/04/17 12:48:50;;;;;;;;;;;17.50;44.80;;;;;;5073210;28;19974;-87
2022/04/17 12:51:17;;;;;;;;;;;17.50;44.10;;;;;;5071638;28;20356;-88
2022/04/17 12:53:43;;;;;;;;;;;17.40;44.10;;;;;;5071253;28;19999;-87
2022/04/17 12:56:10;;;;;;;;;;;17.50;44.80;;;;;;5068426;28;19944;-87
2022/04/17 12:58:36;;;;;;;;;;;17.50;43.90;;;;;;5055841;28;19929;-87
2022/04/17 13:01:03;;;;;;;;;;;17.70;45.20;;;;;;5071830;28;19925;-88
2022/04/17 13:03:29;;;;;;;;;;;17.70;45.50;;;;;;5106115;27;19932;-87
2022/04/17 13:05:56;;;;;;;;;;;17.50;42.70;;;;;;5067872;28;19924;-87
2022/04/17 13:08:23;;;;;;;;;;;17.30;42.00;;;;;;5076848;28;19925;-88
2022/04/17 13:10:49;;;;;;;;;;;17.30;43.10;;;;;;5066016;28;19931;-88
2022/04/17 13:13:16;;;;;;;;;;;17.10;43.50;;;;;;5070616;28;19931;-86
2022/04/17 13:15:42;;;;;;;;;;;17.10;44.30;;;;;;5070277;28;20287;-85
2022/04/17 13:18:09;;;;;;;;;;;17.30;45.00;;;;;;5073786;28;19924;-86
2022/04/17 13:20:35;;;;;;;;;;;17.30;44.50;;;;;;5076245;28;20035;-88
2022/04/17 13:23:02;;;;;;;;;;;17.30;45.30;;;;;;5071844;28;19928;-86
2022/04/17 13:25:28;;;;;;;;;;;17.50;45.90;;;;;;5075442;28;20280;-88
2022/04/17 13:27:55;;;;;;;;;;;17.40;42.70;;;;;;5071158;28;20003;-87
2022/04/17 13:30:22;;;;;;;;;;;17.50;43.90;;;;;;5072567;28;19934;-86
2022/04/17 13:32:48;;;;;;;;;;;17.50;44.20;;;;;;5073706;28;19932;-87
2022/04/17 13:35:15;;;;;;;;;;;17.50;45.30;;;;;;5064212;28;19939;-87
2022/04/17 13:40:25;;;;;;;;;;;17.60;45.20;;;;;;5102517;28;19928;-89
2022/04/17 13:42:52;;;;;;;;;;;17.60;44.60;;;;;;5064844;28;19951;-88
2022/04/17 13:45:19;;;;;;;;;;;17.70;45.00;;;;;;5066448;28;19931;-88
2022/04/17 13:47:45;;;;;;;;;;;17.70;45.70;;;;;;5061109;28;19931;-87
2022/04/17 13:50:12;;;;;;;;;;;17.80;46.20;;;;;;5071983;28;19928;-87
2022/04/17 13:52:38;;;;;;;;;;;17.80;46.20;;;;;;5070094;28;19924;-87
2022/04/17 13:55:05;;;;;;;;;;;17.80;44.10;;;;;;5068782;28;19925;-87
2022/04/17 13:57:31;;;;;;;;;;;17.90;44.00;;;;;;5068471;28;19951;-88
2022/04/17 13:59:58;;;;;;;;;;;17.90;43.50;;;;;;5065351;28;19928;-87
2022/04/17 14:02:25;;;;;;;;;;;17.80;44.20;;;;;;5069809;28;19931;-88
2022/04/17 14:04:51;;;;;;;;;;;17.80;42.60;;;;;;5071745;28;20528;-88
2022/04/17 14:07:18;;;;;;;;;;;17.90;44.70;;;;;;5070712;28;20295;-88
2022/04/17 14:09:44;;;;;;;;;;;17.90;42.90;;;;;;5070811;28;20015;-88
2022/04/17 14:12:12;;;;;;;;;;;17.90;44.10;;;;;;5070692;28;19931;-86
2022/04/17 14:14:38;;;;;;;;;;;17.80;43.60;;;;;;5071301;28;19924;-86
2022/04/17 14:17:05;;;;;;;;;;;17.90;43.30;;;;;;5060667;28;19924;-90
2022/04/17 14:19:31;;;;;;;;;;;17.80;42.70;;;;;;5096487;28;19936;-86
2022/04/17 14:21:58;;;;;;;;;;;17.60;40.20;;;;;;5102093;28;19932;-86
2022/04/17 14:24:24;;;;;;;;;;;17.70;42.20;;;;;;5071101;28;19932;-86
2022/04/17 14:26:51;;;;;;;;;;;17.70;41.90;;;;;;5070569;28;19924;-87
2022/04/17 14:29:17;;;;;;;;;;;17.70;40.40;;;;;;5101837;28;19959;-87
2022/04/17 14:31:44;;;;;;;;;;;17.70;41.20;;;;;;5065759;28;20356;-87
2022/04/17 14:34:11;;;;;;;;;;;17.70;40.50;;;;;;5093826;28;20395;-89
2022/04/17 14:36:37;;;;;;;;;;;17.80;41.20;;;;;;5070913;28;19935;-81
2022/04/17 14:39:04;;;;;;;;;;;17.70;40.60;;;;;;5069751;28;19925;-87
2022/04/17 14:41:30;;;;;;;;;;;17.70;40.80;;;;;;5062432;28;20356;-86